createdAt,value
2023-02-20T00:02:38.183Z,99.90
2023-02-20T00:05:39.268Z,99.90
2023-02-20T00:08:41.321Z,99.90
2023-02-20T00:11:42.646Z,99.90
2023-02-20T00:14:43.548Z,99.90
2023-02-20T00:17:47.433Z,99.90
2023-02-20T00:20:48.566Z,99.90
2023-02-20T00:23:49.857Z,99.90
2023-02-20T00:26:54.256Z,99.90
2023-02-20T00:29:56.387Z,99.90
2023-02-20T00:32:58.505Z,99.90
2023-02-20T00:35:59.618Z,99.90
2023-02-20T00:39:00.733Z,99.90
2023-02-20T00:42:02.053Z,99.90
2023-02-20T00:45:04.310Z,99.90
2023-02-20T00:48:05.906Z,99.90
2023-02-20T00:51:07.049Z,99.90
2023-02-20T00:54:07.993Z,99.90
2023-02-20T00:57:09.395Z,99.90
2023-02-20T01:00:19.588Z,99.90
2023-02-20T01:03:20.751Z,99.90
2023-02-20T01:06:22.002Z,99.90
2023-02-20T01:09:24.550Z,99.90
2023-02-20T01:12:25.345Z,99.90
2023-02-20T01:15:26.679Z,99.90
2023-02-20T01:18:27.726Z,99.90
2023-02-20T01:21:28.928Z,99.90
2023-02-20T01:24:30.165Z,99.90
2023-02-20T01:27:30.800Z,99.90
2023-02-20T01:30:33.916Z,99.90
2023-02-20T01:33:35.120Z,99.90
2023-02-20T01:36:36.058Z,99.90
2023-02-20T01:39:37.078Z,99.90
2023-02-20T01:42:38.286Z,99.90
2023-02-20T01:45:40.880Z,99.90
2023-02-20T01:48:41.899Z,99.90
2023-02-20T01:51:50.849Z,99.90
2023-02-20T01:55:09.247Z,99.90
2023-02-20T01:58:20.125Z,99.90
2023-02-20T02:01:21.590Z,99.90
2023-02-20T02:04:23.074Z,99.90
2023-02-20T02:07:25.459Z,99.90
2023-02-20T02:10:37.847Z,99.90
2023-02-20T02:13:40.037Z,99.90
2023-02-20T02:17:14.908Z,99.90
2023-02-20T02:20:40.472Z,99.90
2023-02-20T02:24:22.473Z,99.90
2023-02-20T02:28:02.462Z,99.90
2023-02-20T02:31:26.870Z,99.90
2023-02-20T02:34:41.893Z,99.90
2023-02-20T02:38:18.124Z,99.90
2023-02-20T02:41:39.820Z,99.90
2023-02-20T02:45:10.258Z,99.90
2023-02-20T02:48:28.610Z,99.90
2023-02-20T02:51:38.257Z,99.90
2023-02-20T02:54:40.017Z,99.90
2023-02-20T02:57:40.950Z,99.90
2023-02-20T03:01:04.664Z,99.90
2023-02-20T03:04:11.669Z,99.90
2023-02-20T03:07:17.100Z,99.90
2023-02-20T03:10:32.184Z,99.90
2023-02-20T03:14:04.948Z,99.90
2023-02-20T03:17:36.634Z,99.90
2023-02-20T03:20:54.202Z,99.90
2023-02-20T03:24:00.238Z,99.90
2023-02-20T03:27:03.216Z,99.90
2023-02-20T03:30:16.957Z,99.90
2023-02-20T03:34:01.953Z,99.90
2023-02-20T03:37:34.792Z,99.90
2023-02-20T03:40:56.509Z,99.90
2023-02-20T03:44:03.162Z,99.90
2023-02-20T03:47:09.073Z,99.90
2023-02-20T03:50:19.417Z,99.90
2023-02-20T03:53:21.659Z,99.90
2023-02-20T03:56:35.089Z,99.90
2023-02-20T03:59:50.763Z,99.90
2023-02-20T04:02:58.226Z,99.90
2023-02-20T04:06:06.727Z,99.90
2023-02-20T04:09:18.041Z,99.90
2023-02-20T04:12:32.906Z,99.90
2023-02-20T04:15:35.586Z,99.90
2023-02-20T04:18:37.693Z,99.90
2023-02-20T04:21:51.998Z,99.90
2023-02-20T04:25:15.970Z,99.90
2023-02-20T04:28:18.605Z,99.90
2023-02-20T04:31:29.207Z,99.90
2023-02-20T04:34:30.607Z,99.90
2023-02-20T04:37:32.754Z,99.90
2023-02-20T04:40:34.354Z,99.90
2023-02-20T04:43:35.172Z,99.90
2023-02-20T04:46:36.397Z,99.90
2023-02-20T04:49:37.568Z,99.90
2023-02-20T04:52:41.885Z,99.90
2023-02-20T04:55:43.314Z,99.90
2023-02-20T04:58:49.675Z,99.90
2023-02-20T05:01:55.051Z,99.90
2023-02-20T05:04:55.997Z,99.90
2023-02-20T05:08:02.210Z,99.90
2023-02-20T05:11:03.222Z,99.90
2023-02-20T05:14:04.753Z,99.90
2023-02-20T05:17:05.546Z,99.90
2023-02-20T05:20:07.819Z,99.90
2023-02-20T05:23:08.661Z,99.90
2023-02-20T05:26:11.794Z,99.90
2023-02-20T05:29:13.881Z,99.90
2023-02-20T05:32:16.904Z,99.90
2023-02-20T05:35:18.056Z,99.90
2023-02-20T05:38:19.808Z,99.90
2023-02-20T05:41:21.117Z,99.90
2023-02-20T05:44:22.005Z,99.90
2023-02-20T05:47:22.899Z,99.90
2023-02-20T05:50:24.040Z,99.90
2023-02-20T05:53:28.955Z,99.90
2023-02-20T05:56:30.326Z,99.90
2023-02-20T05:59:31.238Z,99.90
2023-02-20T06:02:34.253Z,99.90
2023-02-20T06:05:35.346Z,99.90
2023-02-20T06:08:36.102Z,99.90
2023-02-20T06:11:39.026Z,99.90
2023-02-20T06:14:40.039Z,99.90
2023-02-20T06:17:40.579Z,99.90
2023-02-20T06:20:41.178Z,99.90
2023-02-20T06:23:47.543Z,99.90
2023-02-20T06:26:48.569Z,99.90
2023-02-20T06:29:50.159Z,99.90
2023-02-20T06:32:51.198Z,99.90
2023-02-20T06:35:52.238Z,99.90
2023-02-20T06:38:55.654Z,99.90
2023-02-20T06:41:58.709Z,99.90
2023-02-20T06:44:59.866Z,99.90
2023-02-20T06:48:00.534Z,99.90
2023-02-20T06:51:01.446Z,99.90
2023-02-20T06:54:04.238Z,99.90
2023-02-20T06:57:05.382Z,99.90
2023-02-20T07:00:08.409Z,99.90
2023-02-20T07:03:09.651Z,99.90
2023-02-20T07:06:11.928Z,99.90
2023-02-20T07:09:13.382Z,99.90
2023-02-20T07:12:14.197Z,99.90
2023-02-20T07:15:15.342Z,99.90
2023-02-20T07:18:17.510Z,99.90
2023-02-20T07:21:18.828Z,99.90
2023-02-20T07:24:20.354Z,99.90
2023-02-20T07:27:21.542Z,99.90
2023-02-20T07:30:25.341Z,99.90
2023-02-20T07:33:26.340Z,99.90
2023-02-20T07:36:27.082Z,99.90
2023-02-20T07:39:28.330Z,99.90
2023-02-20T07:42:29.000Z,99.90
2023-02-20T07:45:40.986Z,99.90
2023-02-20T07:48:41.681Z,99.90
2023-02-20T07:51:42.842Z,99.90
2023-02-20T07:54:43.805Z,99.90
2023-02-20T07:57:51.706Z,99.90
2023-02-20T08:00:54.169Z,99.90
2023-02-20T08:03:55.177Z,99.90
2023-02-20T08:06:56.482Z,99.90
2023-02-20T08:09:57.905Z,99.90
2023-02-20T08:12:58.966Z,99.90
2023-02-20T08:15:59.770Z,99.90
2023-02-20T08:19:01.634Z,99.90
2023-02-20T08:22:02.890Z,99.90
2023-02-20T08:25:06.012Z,99.90
2023-02-20T08:28:07.198Z,99.90
2023-02-20T08:31:08.082Z,99.90
2023-02-20T08:34:09.326Z,99.90
2023-02-20T08:37:10.497Z,99.90
2023-02-20T08:40:12.370Z,99.90
2023-02-20T08:43:13.641Z,99.90
2023-02-20T08:46:15.158Z,99.90
2023-02-20T08:49:18.394Z,99.90
2023-02-20T08:52:19.456Z,99.90
2023-02-20T08:55:20.573Z,99.90
2023-02-20T08:58:24.940Z,99.90
2023-02-20T09:01:25.887Z,99.90
2023-02-20T09:04:26.934Z,99.90
2023-02-20T09:07:28.058Z,99.90
2023-02-20T09:10:28.885Z,99.90
2023-02-20T09:13:30.057Z,99.90
2023-02-20T09:16:31.050Z,99.90
2023-02-20T09:19:32.605Z,99.90
2023-02-20T09:22:33.841Z,99.90
2023-02-20T09:25:36.290Z,99.90
2023-02-20T09:28:37.364Z,99.90
2023-02-20T09:31:38.347Z,99.90
2023-02-20T09:34:39.726Z,99.90
2023-02-20T09:37:40.562Z,99.40
2023-02-20T09:40:43.739Z,99.90
2023-02-20T09:44:02.325Z,98.40
2023-02-20T09:47:40.713Z,98.20
2023-02-20T09:50:53.506Z,98.10
2023-02-20T09:54:46.326Z,96.30
2023-02-20T09:57:55.711Z,95.50
2023-02-20T10:01:02.482Z,93.80
2023-02-20T10:04:22.577Z,92.60
2023-02-20T10:07:31.943Z,90.70
2023-02-20T10:10:39.359Z,89.20
2023-02-20T10:14:14.306Z,89.40
2023-02-20T10:17:20.370Z,89.20
2023-02-20T10:20:45.806Z,87.10
2023-02-20T10:24:06.022Z,86.00
2023-02-20T10:27:57.947Z,85.90
2023-02-20T10:31:19.425Z,88.30
2023-02-20T10:34:47.960Z,83.40
2023-02-20T10:37:55.810Z,81.10
2023-02-20T10:41:25.133Z,83.00
2023-02-20T10:45:08.818Z,81.60
2023-02-20T10:48:15.722Z,79.80
2023-02-20T10:51:42.852Z,86.20
2023-02-20T10:54:47.965Z,88.00
2023-02-20T10:58:06.230Z,88.90
2023-02-20T11:01:14.397Z,88.70
2023-02-20T11:04:34.308Z,87.50
2023-02-20T11:07:35.265Z,89.40
2023-02-20T11:10:38.829Z,88.70
2023-02-20T11:13:39.735Z,90.00
2023-02-20T11:16:54.890Z,87.10
2023-02-20T11:20:02.533Z,86.30
2023-02-20T11:23:03.966Z,84.60
2023-02-20T11:26:29.665Z,86.00
2023-02-20T11:30:02.750Z,85.30
2023-02-20T11:33:10.055Z,85.10
2023-02-20T11:36:32.276Z,84.00
2023-02-20T11:39:35.770Z,86.60
2023-02-20T11:42:37.229Z,83.30
2023-02-20T11:45:38.512Z,83.70
2023-02-20T11:48:59.954Z,79.60
2023-02-20T11:52:22.218Z,81.70
2023-02-20T11:55:27.880Z,78.50
2023-02-20T11:58:29.530Z,75.20
2023-02-20T12:01:35.745Z,73.40
2023-02-20T12:04:36.791Z,69.30
2023-02-20T12:07:52.080Z,66.60
2023-02-20T12:10:56.792Z,65.30
2023-02-20T12:14:00.968Z,67.70
2023-02-20T12:17:33.634Z,66.20
2023-02-20T12:20:44.535Z,69.70
2023-02-20T12:24:15.630Z,70.30
2023-02-20T12:28:08.144Z,67.70
2023-02-20T12:31:35.573Z,70.10
2023-02-20T12:34:50.930Z,69.10
2023-02-20T12:38:12.918Z,67.90
2023-02-20T12:41:16.756Z,66.80
2023-02-20T12:44:54.734Z,71.00
2023-02-20T12:48:31.668Z,70.90
2023-02-20T12:51:53.590Z,68.90
2023-02-20T12:55:34.459Z,70.70
2023-02-20T12:59:22.642Z,73.90
2023-02-20T13:02:42.578Z,71.40
2023-02-20T13:05:49.037Z,77.80
2023-02-20T13:09:21.463Z,82.90
2023-02-20T13:12:22.556Z,83.40
2023-02-20T13:16:24.703Z,83.60
2023-02-20T13:19:52.860Z,83.80
2023-02-20T13:23:30.806Z,87.20
2023-02-20T13:26:34.810Z,90.50
2023-02-20T13:30:10.844Z,86.80
2023-02-20T13:33:29.791Z,88.90
2023-02-20T13:36:30.617Z,85.90
2023-02-20T13:39:41.675Z,88.90
2023-02-20T13:42:42.598Z,92.70
2023-02-20T13:45:46.341Z,90.60
2023-02-20T13:48:51.396Z,86.50
2023-02-20T13:51:52.659Z,76.90
2023-02-20T13:54:53.757Z,75.60
2023-02-20T13:58:06.503Z,74.80
2023-02-20T14:01:09.281Z,73.00
2023-02-20T14:04:10.330Z,75.00
2023-02-20T14:07:11.655Z,71.30
2023-02-20T14:10:25.314Z,73.60
2023-02-20T14:13:39.383Z,73.00
2023-02-20T14:16:46.198Z,69.50
2023-02-20T14:20:08.535Z,67.50
2023-02-20T14:23:28.134Z,67.20
2023-02-20T14:26:34.810Z,70.20
2023-02-20T14:29:37.701Z,66.50
2023-02-20T14:32:43.671Z,67.50
2023-02-20T14:36:12.892Z,64.20
2023-02-20T14:39:29.158Z,65.10
2023-02-20T14:42:30.774Z,66.30
2023-02-20T14:45:32.764Z,65.20
2023-02-20T14:48:41.105Z,64.30
2023-02-20T14:51:42.609Z,65.20
2023-02-20T14:54:57.431Z,67.60
2023-02-20T14:57:58.479Z,66.10
2023-02-20T15:00:59.409Z,64.60
2023-02-20T15:04:15.925Z,64.70
2023-02-20T15:07:21.834Z,65.90
2023-02-20T15:10:48.732Z,66.00
2023-02-20T15:13:51.079Z,65.50
2023-02-20T15:17:10.066Z,66.50
2023-02-20T15:20:32.873Z,65.90
2023-02-20T15:23:43.344Z,71.00
2023-02-20T15:26:44.082Z,73.40
2023-02-20T15:29:47.673Z,74.30
2023-02-20T15:32:53.684Z,75.20
2023-02-20T15:35:55.145Z,75.70
2023-02-20T15:38:57.050Z,89.80
2023-02-20T15:41:59.057Z,92.70
2023-02-20T15:45:01.437Z,89.80
2023-02-20T15:48:02.283Z,91.10
2023-02-20T15:51:05.762Z,93.30
2023-02-20T15:54:15.402Z,98.40
2023-02-20T15:57:18.144Z,93.50
2023-02-20T16:00:27.771Z,90.30
2023-02-20T16:03:33.944Z,91.30
2023-02-20T16:06:39.434Z,89.20
2023-02-20T16:09:40.129Z,87.50
2023-02-20T16:12:41.501Z,82.50
2023-02-20T16:15:42.328Z,84.60
2023-02-20T16:18:43.543Z,86.10
2023-02-20T16:21:58.168Z,87.70
2023-02-20T16:25:00.143Z,88.60
2023-02-20T16:28:01.326Z,93.30
2023-02-20T16:31:02.520Z,99.40
2023-02-20T16:34:05.943Z,99.90
2023-02-20T16:37:12.567Z,99.90
2023-02-20T16:40:14.855Z,99.90
2023-02-20T16:43:21.697Z,99.90
2023-02-20T16:46:37.383Z,99.90
2023-02-20T16:49:40.298Z,99.90
2023-02-20T16:52:42.716Z,99.90
2023-02-20T16:55:44.455Z,99.90
2023-02-20T16:58:45.771Z,99.90
2023-02-20T17:01:46.971Z,99.90
2023-02-20T17:04:49.257Z,99.90
2023-02-20T17:07:50.404Z,99.90
2023-02-20T17:10:51.426Z,99.90
2023-02-20T17:13:52.538Z,99.90
2023-02-20T17:16:53.590Z,99.90
2023-02-20T17:19:56.854Z,99.90
2023-02-20T17:23:04.674Z,99.90
2023-02-20T17:26:09.308Z,99.90
2023-02-20T17:29:11.892Z,99.90
2023-02-20T17:32:14.204Z,99.90
2023-02-20T17:35:16.493Z,99.90
2023-02-20T17:38:17.265Z,99.90
2023-02-20T17:41:21.893Z,99.90
2023-02-20T17:44:27.190Z,99.90
2023-02-20T17:47:29.512Z,99.90
2023-02-20T17:50:30.605Z,99.90
2023-02-20T17:53:31.374Z,99.90
2023-02-20T17:56:32.349Z,99.90
2023-02-20T17:59:41.556Z,99.90
2023-02-20T18:02:42.521Z,99.90
2023-02-20T18:05:43.605Z,99.90
2023-02-20T18:08:44.218Z,99.90
2023-02-20T18:11:46.557Z,99.90
2023-02-20T18:14:48.030Z,99.90
2023-02-20T18:17:50.143Z,99.90
2023-02-20T18:20:51.001Z,99.90
2023-02-20T18:23:52.173Z,99.90
2023-02-20T18:26:54.925Z,99.90
2023-02-20T18:29:56.747Z,99.90
2023-02-20T18:32:57.551Z,99.90
2023-02-20T18:36:07.555Z,99.90
2023-02-20T18:39:19.598Z,99.90
2023-02-20T18:42:20.756Z,99.90
2023-02-20T18:45:23.436Z,99.90
2023-02-20T18:48:24.340Z,99.90
2023-02-20T18:51:37.892Z,99.90
2023-02-20T18:54:38.508Z,99.90
2023-02-20T18:57:39.245Z,99.90
2023-02-20T19:00:40.992Z,99.90
2023-02-20T19:03:42.046Z,99.90
2023-02-20T19:06:47.121Z,99.90
2023-02-20T19:09:54.205Z,99.90
2023-02-20T19:12:55.556Z,99.90
2023-02-20T19:15:56.286Z,99.90
2023-02-20T19:18:57.479Z,99.90
2023-02-20T19:21:59.640Z,99.90
2023-02-20T19:25:01.552Z,99.90
2023-02-20T19:28:02.610Z,99.90
2023-02-20T19:31:04.077Z,99.90
2023-02-20T19:34:05.190Z,99.90
2023-02-20T19:37:06.012Z,99.90
2023-02-20T19:40:08.525Z,99.90
2023-02-20T19:43:09.652Z,99.90
2023-02-20T19:46:24.848Z,99.90
2023-02-20T19:49:26.285Z,99.90
2023-02-20T19:52:27.583Z,99.90
2023-02-20T19:55:28.449Z,99.90
2023-02-20T19:58:29.651Z,99.90
2023-02-20T20:01:30.396Z,99.90
2023-02-20T20:04:33.532Z,99.90
2023-02-20T20:07:34.731Z,99.90
2023-02-20T20:10:35.878Z,99.90
2023-02-20T20:13:36.956Z,99.90
2023-02-20T20:16:38.188Z,99.90
2023-02-20T20:19:44.381Z,99.90
2023-02-20T20:22:57.419Z,99.90
2023-02-20T20:25:57.987Z,99.90
2023-02-20T20:28:59.314Z,99.90
2023-02-20T20:32:00.632Z,99.90
2023-02-20T20:35:01.882Z,99.90
2023-02-20T20:38:03.132Z,99.90
2023-02-20T20:41:04.385Z,99.90
2023-02-20T20:44:05.609Z,99.90
2023-02-20T20:47:07.223Z,99.90
2023-02-20T20:50:08.609Z,99.90
2023-02-20T20:53:09.713Z,99.90
2023-02-20T20:56:11.020Z,99.90
2023-02-20T20:59:11.862Z,99.90
2023-02-20T21:02:14.373Z,99.90
2023-02-20T21:05:17.268Z,99.90
2023-02-20T21:08:18.492Z,99.90
2023-02-20T21:11:19.390Z,99.90
2023-02-20T21:14:20.616Z,99.90
2023-02-20T21:17:21.295Z,99.90
2023-02-20T21:20:26.346Z,99.90
2023-02-20T21:23:27.565Z,99.90
2023-02-20T21:26:28.943Z,99.90
2023-02-20T21:29:29.898Z,99.90
2023-02-20T21:32:30.911Z,99.90
2023-02-20T21:35:31.991Z,99.90
2023-02-20T21:38:37.376Z,99.90
2023-02-20T21:41:56.614Z,99.90
2023-02-20T21:44:57.373Z,99.90
2023-02-20T21:47:58.039Z,99.90
2023-02-20T21:50:58.826Z,99.90
2023-02-20T21:53:59.461Z,99.90
2023-02-20T21:57:01.241Z,99.90
2023-02-20T22:00:04.561Z,99.90
2023-02-20T22:03:07.182Z,99.90
2023-02-20T22:06:07.986Z,99.90
2023-02-20T22:09:27.926Z,99.90
2023-02-20T22:12:47.178Z,99.90
2023-02-20T22:16:06.743Z,99.90
2023-02-20T22:19:26.576Z,99.90
2023-02-20T22:22:45.882Z,99.90
2023-02-20T22:26:05.689Z,99.90
2023-02-20T22:29:25.742Z,99.90
2023-02-20T22:32:45.473Z,99.90
2023-02-20T22:36:04.861Z,99.90
2023-02-20T22:39:24.987Z,99.90
2023-02-20T22:42:44.158Z,99.90
2023-02-20T22:46:03.327Z,99.90
2023-02-20T22:49:22.464Z,99.90
2023-02-20T22:52:41.645Z,99.90
2023-02-20T22:56:01.303Z,99.90
2023-02-20T22:59:21.023Z,99.90
2023-02-20T23:02:40.683Z,99.90
2023-02-20T23:06:11.661Z,99.90
2023-02-20T23:09:36.755Z,99.90
2023-02-20T23:12:55.799Z,99.90
2023-02-20T23:16:15.067Z,99.90
2023-02-20T23:19:34.540Z,99.90
2023-02-20T23:22:53.731Z,99.90
2023-02-20T23:26:13.612Z,99.90
2023-02-20T23:29:32.732Z,99.90
2023-02-20T23:32:52.013Z,99.90
2023-02-20T23:36:11.829Z,99.90
2023-02-20T23:39:30.993Z,99.90
2023-02-20T23:42:50.031Z,99.90
2023-02-20T23:46:09.884Z,99.90
2023-02-20T23:49:29.927Z,99.90
2023-02-20T23:52:49.044Z,99.90
2023-02-20T23:56:08.177Z,99.90
2023-02-20T23:59:29.406Z,99.90
